KIRK/IRK METAR and TAF weather

Enter ICAO airport designator
Station Type Date Time Source
KIRK METAR 2022/12/08 11:55 UTC NOAA

KIRK 081155Z AUTO 07010KT 5SM BR OVC015 03/02 A3027 RMK AO2 SLP259 T00330017 10039 20028 55005


Station Type Date Time Source
KIRK Decoded METAR 2022/12/08 11:55 UTC NOAA

KIRKSVILLE REGIONAL AIRPORT , MO, United States (KIRK) 40-06N 092-33W 293M
Dec 08, 2022 - 06:55 AM EST / 2022.12.08 1155 UTC
Wind: from the ENE (070 degrees) at 12 MPH (10 KT):0
Visibility: 5 mile(s):0
Sky conditions: overcast
Weather: mist
Temperature: 37.9 F (3.3 C)
Dew Point: 35.1 F (1.7 C)
Relative Humidity: 89%
Pressure (altimeter): 30.27 in. Hg (1025 hPa)
Pressure tendency: 0.01 inches (0.5 hPa) lower than three hours ago
ob: KIRK 081155Z AUTO 07010KT 5SM BR OVC015 03/02 A3027 RMK AO2 SLP259 T00330017 10039 20028 55005
cycle: 12

Station Type Date Time Source
KIRK TAF UTC NOAA

Error!

Example: see airport list